Time;durP1;ratioP1;P1;durP2;ratioP2;P2;SDS_P1;SDS_P2;PMS_P1;PMS_P2;Temp;Humidity;BMP_temperature;BMP_pressure;BME280_temperature;BME280_humidity;BME280_pressure;Samples;Min_cycle;Max_cycle;Signal;HPM_P1;HPM_P2
2021/11/25 00:02:09;;;;;;;27.02;15.57;;;3.20;99.90;;;;;;5074717;28;20118;-79
2021/11/25 00:04:35;;;;;;;26.58;16.65;;;3.40;99.90;;;;;;5074737;28;20054;-78
2021/11/25 00:07:00;;;;;;;25.55;15.48;;;3.20;99.90;;;;;;5074733;28;20118;-78
2021/11/25 00:09:26;;;;;;;32.85;18.92;;;3.30;99.90;;;;;;5093676;28;20042;-79
2021/11/25 00:11:52;;;;;;;27.20;17.10;;;3.30;99.90;;;;;;5078882;28;20020;-78
2021/11/25 00:14:18;;;;;;;28.10;17.30;;;3.20;99.90;;;;;;5078786;28;20035;-79
2021/11/25 00:16:45;;;;;;;28.20;17.42;;;3.10;99.90;;;;;;5078711;28;20474;-79
2021/11/25 00:19:11;;;;;;;28.98;16.90;;;3.00;99.90;;;;;;5097166;28;20020;-78
2021/11/25 00:21:37;;;;;;;34.47;19.05;;;3.00;99.90;;;;;;5096840;28;20416;-79
2021/11/25 00:24:05;;;;;;;30.60;18.67;;;3.00;99.90;;;;;;5078637;28;20391;-78
2021/11/25 00:26:34;;;;;;;25.02;14.82;;;2.90;99.90;;;;;;5078659;28;20452;-79
2021/11/25 00:29:00;;;;;;;31.30;17.88;;;2.90;99.90;;;;;;5097022;28;20032;-79
2021/11/25 00:31:26;;;;;;;32.67;19.50;;;2.90;99.90;;;;;;5078491;28;20072;-79
2021/11/25 00:33:52;;;;;;;34.40;20.02;;;2.90;99.90;;;;;;5078491;28;20460;-79
2021/11/25 00:36:18;;;;;;;30.35;17.83;;;2.80;99.90;;;;;;5096345;28;20066;-78
2021/11/25 00:38:44;;;;;;;33.75;19.45;;;2.80;99.90;;;;;;5096466;28;20028;-79
2021/11/25 00:41:10;;;;;;;29.33;18.23;;;2.80;99.90;;;;;;5078218;28;20059;-79
2021/11/25 00:43:36;;;;;;;31.35;18.60;;;2.90;99.90;;;;;;5078263;28;20597;-79
2021/11/25 00:46:02;;;;;;;33.65;19.40;;;3.00;99.90;;;;;;5078153;28;20055;-78
2021/11/25 00:48:27;;;;;;;31.35;17.52;;;3.20;99.90;;;;;;5077985;28;20028;-79
2021/11/25 00:50:53;;;;;;;31.88;18.65;;;3.20;99.90;;;;;;5096331;28;20020;-79
2021/11/25 00:53:19;;;;;;;23.95;14.30;;;2.80;99.90;;;;;;5078031;28;20060;-79
2021/11/25 00:55:45;;;;;;;28.80;17.85;;;2.70;99.90;;;;;;5078040;28;20022;-79
2021/11/25 00:58:11;;;;;;;30.92;18.90;;;2.80;99.90;;;;;;5096140;28;20079;-78
2021/11/25 01:00:37;;;;;;;26.13;15.40;;;2.80;99.90;;;;;;5077857;28;20024;-78
2021/11/25 01:03:04;;;;;;;30.27;18.17;;;2.80;99.90;;;;;;5078074;28;20541;-78
2021/11/25 01:05:30;;;;;;;31.08;18.58;;;2.80;99.90;;;;;;5077867;28;20080;-79
2021/11/25 01:07:56;;;;;;;27.95;16.73;;;2.80;99.90;;;;;;5095945;28;20032;-79
2021/11/25 01:10:23;;;;;;;31.65;18.05;;;3.00;99.90;;;;;;5077692;28;20074;-78
2021/11/25 01:12:51;;;;;;;28.05;17.27;;;2.90;99.90;;;;;;5077672;28;20043;-78
2021/11/25 01:15:18;;;;;;;30.63;18.20;;;2.90;99.90;;;;;;5077637;28;20020;-79
2021/11/25 01:17:45;;;;;;;29.70;18.35;;;3.00;99.90;;;;;;5095805;28;20020;-79
2021/11/25 01:20:16;;;;;;;30.80;19.17;;;3.10;99.90;;;;;;5077770;28;20494;-78
2021/11/25 01:22:43;;;;;;;26.85;17.15;;;2.90;99.90;;;;;;5076767;28;20060;-78
2021/11/25 01:25:10;;;;;;;24.35;15.40;;;2.90;99.90;;;;;;5077523;28;20027;-78
2021/11/25 01:27:35;;;;;;;33.10;18.50;;;3.00;99.90;;;;;;5077618;28;20170;-78
2021/11/25 01:30:03;;;;;;;30.23;17.58;;;3.00;99.90;;;;;;5077303;28;20479;-78
2021/11/25 01:32:28;;;;;;;29.85;17.45;;;2.90;99.90;;;;;;5095484;28;20024;-79
2021/11/25 01:34:55;;;;;;;29.48;18.25;;;2.90;99.90;;;;;;5077422;28;20119;-78
2021/11/25 01:37:23;;;;;;;28.83;18.70;;;2.80;99.90;;;;;;5095173;28;20048;-79
2021/11/25 01:39:49;;;;;;;27.65;17.30;;;2.70;99.90;;;;;;5077203;28;20032;-79
2021/11/25 01:42:15;;;;;;;23.38;14.38;;;2.70;99.90;;;;;;5077214;28;20413;-78
2021/11/25 01:44:40;;;;;;;29.35;17.90;;;2.80;99.90;;;;;;5095525;28;20035;-79
2021/11/25 01:47:06;;;;;;;29.23;19.15;;;2.90;99.90;;;;;;5076849;28;20359;-79
2021/11/25 01:49:32;;;;;;;33.70;21.05;;;2.70;99.90;;;;;;5076968;28;20392;-78
2021/11/25 01:51:58;;;;;;;35.42;20.55;;;2.60;99.90;;;;;;5077216;28;20016;-79
2021/11/25 01:54:24;;;;;;;26.63;17.45;;;2.60;99.90;;;;;;5095089;28;20103;-79
2021/11/25 01:56:51;;;;;;;27.00;17.00;;;2.70;99.90;;;;;;5095504;28;20459;-80
2021/11/25 01:59:16;;;;;;;35.40;21.90;;;2.70;99.90;;;;;;5076756;28;20020;-79
2021/11/25 02:01:43;;;;;;;29.40;17.25;;;2.70;99.90;;;;;;5076701;28;20020;-78
2021/11/25 02:04:09;;;;;;;30.52;17.75;;;2.70;99.90;;;;;;5076739;28;20020;-78
2021/11/25 02:06:35;;;;;;;28.92;17.73;;;2.80;99.90;;;;;;5076656;28;20020;-78
2021/11/25 02:09:02;;;;;;;23.95;15.45;;;2.70;99.90;;;;;;5076576;28;20391;-78
2021/11/25 02:11:28;;;;;;;30.80;18.17;;;2.70;99.90;;;;;;5094758;28;20016;-78
2021/11/25 02:13:54;;;;;;;25.80;16.75;;;2.70;99.90;;;;;;5076521;28;20399;-78
2021/11/25 02:16:20;;;;;;;33.65;20.45;;;2.80;99.90;;;;;;5076466;28;20427;-79
2021/11/25 02:18:46;;;;;;;31.98;19.45;;;2.90;99.90;;;;;;5076382;28;20020;-79
2021/11/25 02:21:12;;;;;;;32.42;18.38;;;2.90;99.90;;;;;;5076400;28;20046;-79
2021/11/25 02:23:37;;;;;;;33.22;19.40;;;2.90;99.90;;;;;;5076298;28;20125;-78
2021/11/25 02:26:04;;;;;;;25.73;16.65;;;2.60;99.90;;;;;;5076233;28;20035;-79
2021/11/25 02:28:34;;;;;;;29.15;17.20;;;2.70;99.90;;;;;;5076149;28;20395;-78
2021/11/25 02:31:00;;;;;;;33.80;19.58;;;2.80;99.90;;;;;;5094323;28;20020;-78
2021/11/25 02:33:26;;;;;;;27.90;17.23;;;2.90;99.90;;;;;;5076031;28;20016;-78
2021/11/25 02:35:52;;;;;;;29.23;16.88;;;3.00;99.90;;;;;;5094259;28;20069;-78
2021/11/25 02:38:18;;;;;;;25.88;16.08;;;3.10;99.90;;;;;;5076055;28;20028;-78
2021/11/25 02:40:50;;;;;;;27.80;16.02;;;3.00;99.90;;;;;;5075937;28;20034;-78
2021/11/25 02:43:19;;;;;;;24.17;14.77;;;3.10;99.90;;;;;;5076512;28;20024;-78
2021/11/25 02:45:49;;;;;;;31.40;19.30;;;3.10;99.90;;;;;;5075821;28;20476;-78
2021/11/25 02:48:16;;;;;;;26.42;16.30;;;3.00;99.90;;;;;;5093730;28;20031;-78
2021/11/25 02:50:43;;;;;;;27.85;17.10;;;3.00;99.90;;;;;;5093953;28;20047;-78
2021/11/25 02:53:09;;;;;;;28.88;18.58;;;3.00;99.90;;;;;;5093893;28;20028;-79
2021/11/25 02:55:35;;;;;;;32.25;20.48;;;3.10;99.90;;;;;;5075613;28;20111;-78
2021/11/25 02:58:01;;;;;;;29.95;19.55;;;2.90;99.90;;;;;;5075627;28;20105;-78
2021/11/25 03:00:35;;;;;;;28.35;16.90;;;2.80;99.90;;;;;;5075576;28;20487;-78
2021/11/25 03:03:11;;;;;;;30.75;20.15;;;2.90;99.90;;;;;;5075616;28;20024;-78
2021/11/25 03:05:39;;;;;;;28.55;17.80;;;2.80;99.90;;;;;;5075531;28;20040;-78
2021/11/25 03:08:07;;;;;;;33.95;19.98;;;2.90;99.90;;;;;;5075362;28;20032;-78
2021/11/25 03:10:42;;;;;;;25.98;17.42;;;2.90;99.90;;;;;;5093930;28;20107;-78
2021/11/25 03:13:09;;;;;;;30.05;17.70;;;2.90;99.90;;;;;;5075395;28;20027;-78
2021/11/25 03:15:37;;;;;;;24.30;15.40;;;3.00;99.90;;;;;;5075410;28;20016;-78
2021/11/25 03:18:04;;;;;;;24.63;16.10;;;2.90;99.90;;;;;;5075431;28;20032;-78
2021/11/25 03:20:30;;;;;;;28.10;17.02;;;2.90;99.90;;;;;;5075256;28;20421;-78
2021/11/25 03:22:56;;;;;;;27.45;17.00;;;2.90;99.90;;;;;;5075225;28;20032;-78
2021/11/25 03:25:22;;;;;;;26.15;17.50;;;2.80;99.90;;;;;;5075247;28;20052;-78
2021/11/25 03:27:49;;;;;;;27.67;16.95;;;2.90;99.90;;;;;;5075621;28;20031;-78
2021/11/25 03:30:15;;;;;;;30.80;19.50;;;3.00;99.90;;;;;;5093331;28;20039;-78
2021/11/25 03:32:41;;;;;;;31.00;19.83;;;2.90;99.90;;;;;;5075145;28;20020;-78
2021/11/25 03:35:07;;;;;;;27.65;17.10;;;2.90;99.90;;;;;;5075062;28;20027;-78
2021/11/25 03:37:34;;;;;;;27.60;16.60;;;2.90;99.90;;;;;;5071607;28;20139;-78
2021/11/25 03:40:00;;;;;;;32.10;19.17;;;3.10;99.90;;;;;;5071729;28;20392;-78
2021/11/25 03:42:26;;;;;;;33.97;19.15;;;3.00;99.90;;;;;;5071695;28;20020;-78
2021/11/25 03:44:53;;;;;;;33.63;19.63;;;3.00;99.90;;;;;;5071274;28;20029;-78
2021/11/25 03:47:20;;;;;;;25.88;17.27;;;3.00;99.90;;;;;;5071516;28;20079;-78
2021/11/25 03:49:46;;;;;;;26.80;17.52;;;2.90;99.90;;;;;;5071634;28;20051;-78
2021/11/25 03:52:12;;;;;;;29.35;19.88;;;2.90;99.90;;;;;;5071570;28;20102;-78
2021/11/25 03:54:38;;;;;;;31.45;19.98;;;3.10;99.90;;;;;;5071557;28;20021;-78
2021/11/25 03:57:05;;;;;;;30.88;17.75;;;3.20;99.90;;;;;;5073058;28;20472;-78
2021/11/25 03:59:30;;;;;;;35.03;21.38;;;3.30;99.90;;;;;;5071537;28;20458;-78
2021/11/25 04:01:56;;;;;;;32.67;19.08;;;3.00;99.90;;;;;;5073119;28;20067;-79
2021/11/25 04:04:22;;;;;;;33.65;20.52;;;2.90;99.90;;;;;;5072975;28;20082;-80
2021/11/25 04:06:48;;;;;;;30.88;18.88;;;2.80;99.90;;;;;;5071284;28;20025;-78
2021/11/25 04:09:13;;;;;;;30.95;17.10;;;2.90;99.90;;;;;;5072771;28;20471;-78
2021/11/25 04:11:39;;;;;;;33.83;19.63;;;3.20;99.90;;;;;;5072714;28;20066;-78
2021/11/25 04:14:05;;;;;;;26.52;16.95;;;3.20;99.90;;;;;;5071364;28;20048;-78
2021/11/25 04:16:31;;;;;;;24.50;16.45;;;3.20;99.90;;;;;;5071377;28;20119;-78
2021/11/25 04:18:58;;;;;;;28.05;17.60;;;3.30;99.90;;;;;;5071261;28;20047;-78
2021/11/25 04:21:24;;;;;;;30.25;19.02;;;3.40;99.90;;;;;;5072864;28;20129;-78
2021/11/25 04:23:50;;;;;;;28.33;17.60;;;3.30;99.90;;;;;;5071123;28;20119;-78
2021/11/25 04:26:16;;;;;;;33.38;18.50;;;3.40;99.90;;;;;;5071161;28;20101;-78
2021/11/25 04:28:42;;;;;;;35.83;21.00;;;3.50;99.90;;;;;;5071055;28;20036;-78
2021/11/25 04:36:36;;;;;;;31.58;17.83;;;3.20;99.90;;;;;;5079782;28;20047;-78
2021/11/25 04:39:06;;;;;;;27.98;16.55;;;3.30;99.90;;;;;;5092742;28;20024;-78
2021/11/25 04:41:33;;;;;;;31.67;19.33;;;3.40;99.90;;;;;;5092546;28;20047;-78
2021/11/25 04:43:58;;;;;;;33.10;20.50;;;3.20;99.90;;;;;;5092479;28;20028;-78
2021/11/25 04:46:24;;;;;;;33.40;19.42;;;3.00;99.90;;;;;;5092501;28;20035;-78
2021/11/25 04:48:50;;;;;;;31.67;19.65;;;3.20;99.90;;;;;;5092339;28;20502;-78
2021/11/25 04:51:17;;;;;;;32.22;19.20;;;3.20;99.90;;;;;;5074236;28;20027;-78
2021/11/25 04:53:42;;;;;;;24.08;15.30;;;3.10;99.90;;;;;;5074192;28;20115;-78
2021/11/25 04:56:08;;;;;;;37.08;22.60;;;3.20;99.90;;;;;;5074380;28;20056;-78
2021/11/25 04:58:34;;;;;;;25.77;16.75;;;3.10;99.90;;;;;;5077772;28;20038;-78
2021/11/25 05:01:00;;;;;;;26.27;17.25;;;3.00;99.90;;;;;;5077781;28;20107;-78
2021/11/25 05:03:26;;;;;;;30.70;19.13;;;3.00;99.90;;;;;;5077765;28;20020;-78
2021/11/25 05:05:54;;;;;;;30.08;18.00;;;3.10;99.90;;;;;;5077846;28;20515;-78
2021/11/25 05:08:20;;;;;;;29.55;18.88;;;3.00;99.90;;;;;;5096184;28;20020;-78
2021/11/25 05:10:46;;;;;;;31.88;19.55;;;3.10;99.90;;;;;;5095939;28;20065;-78
2021/11/25 05:13:12;;;;;;;32.75;19.60;;;2.90;99.90;;;;;;5077641;28;20118;-78
2021/11/25 05:15:39;;;;;;;31.15;18.73;;;2.80;99.90;;;;;;5095855;28;20020;-78
2021/11/25 05:18:06;;;;;;;28.40;18.02;;;2.80;99.90;;;;;;5077598;28;20513;-78
2021/11/25 05:20:33;;;;;;;28.38;18.13;;;2.90;99.90;;;;;;5077548;28;20035;-78
2021/11/25 05:22:58;;;;;;;32.58;19.85;;;3.20;99.90;;;;;;5077352;28;20475;-78
2021/11/25 05:25:24;;;;;;;28.63;18.05;;;3.30;99.90;;;;;;5095499;28;20031;-78
2021/11/25 05:27:51;;;;;;;28.05;17.73;;;3.30;99.90;;;;;;5077307;28;20028;-78
2021/11/25 05:30:18;;;;;;;30.10;17.95;;;3.30;99.90;;;;;;5077346;28;20030;-78
2021/11/25 05:32:44;;;;;;;30.90;18.17;;;3.30;99.90;;;;;;5077235;28;20016;-78
2021/11/25 05:35:11;;;;;;;38.40;22.10;;;3.30;99.90;;;;;;5077102;28;20498;-78
2021/11/25 05:37:37;;;;;;;33.38;19.02;;;3.20;99.90;;;;;;5076968;28;20403;-78
2021/11/25 05:40:04;;;;;;;33.85;20.58;;;3.00;99.90;;;;;;5077132;28;20050;-78
2021/11/25 05:42:32;;;;;;;31.55;18.00;;;3.00;99.90;;;;;;5077030;28;20119;-78
2021/11/25 05:44:58;;;;;;;26.70;16.17;;;2.80;99.90;;;;;;5077027;28;20025;-78
2021/11/25 05:47:24;;;;;;;29.08;17.77;;;3.20;99.90;;;;;;5076830;28;20058;-78
2021/11/25 05:49:50;;;;;;;31.05;17.30;;;3.20;99.90;;;;;;5095179;28;20024;-78
2021/11/25 05:52:16;;;;;;;28.25;17.23;;;3.00;99.90;;;;;;5076903;28;20030;-78
2021/11/25 05:54:42;;;;;;;32.65;20.60;;;3.00;99.90;;;;;;5076776;28;20020;-78
2021/11/25 05:57:08;;;;;;;30.55;18.67;;;3.00;99.90;;;;;;5076923;28;20024;-78
2021/11/25 05:59:33;;;;;;;34.47;20.35;;;2.90;99.90;;;;;;5076800;28;20027;-78
2021/11/25 06:02:02;;;;;;;35.25;20.88;;;3.00;99.90;;;;;;5094819;28;20046;-78
2021/11/25 06:04:28;;;;;;;26.90;16.50;;;2.90;99.90;;;;;;5076729;28;20031;-78
2021/11/25 06:06:54;;;;;;;35.08;20.67;;;2.90;99.90;;;;;;5076405;28;20055;-78
2021/11/25 06:09:20;;;;;;;28.90;17.17;;;2.90;99.90;;;;;;5094699;28;20478;-78
2021/11/25 06:11:47;;;;;;;32.50;19.15;;;2.90;99.90;;;;;;5076633;28;20023;-78
2021/11/25 06:14:13;;;;;;;38.28;20.77;;;2.80;99.90;;;;;;5076491;28;20391;-78
2021/11/25 06:16:38;;;;;;;34.78;20.02;;;2.70;99.90;;;;;;5094685;28;20026;-78
2021/11/25 06:19:04;;;;;;;35.90;20.70;;;2.60;99.90;;;;;;5076265;28;20403;-79
2021/11/25 06:21:30;;;;;;;37.55;21.95;;;2.50;99.90;;;;;;5076366;28;20092;-78
2021/11/25 06:23:56;;;;;;;35.85;20.02;;;2.40;99.90;;;;;;5076311;28;20028;-78
2021/11/25 06:26:22;;;;;;;35.20;20.27;;;2.50;99.90;;;;;;5076238;28;20035;-78
2021/11/25 06:28:48;;;;;;;34.88;20.02;;;2.50;99.90;;;;;;5076207;28;20060;-78
2021/11/25 06:31:14;;;;;;;29.00;16.38;;;2.50;99.90;;;;;;5076200;28;20174;-77
2021/11/25 06:33:40;;;;;;;41.83;24.25;;;2.50;99.90;;;;;;5094399;28;20096;-78
2021/11/25 06:36:05;;;;;;;38.25;21.90;;;2.50;99.90;;;;;;5075825;28;20115;-78
2021/11/25 06:38:32;;;;;;;35.92;21.73;;;2.40;99.90;;;;;;5076005;28;20031;-78
2021/11/25 06:40:58;;;;;;;34.22;19.58;;;2.30;99.90;;;;;;5075980;28;20024;-78
2021/11/25 06:43:26;;;;;;;32.85;19.23;;;2.30;99.90;;;;;;5094200;28;20028;-78
2021/11/25 06:45:52;;;;;;;34.65;19.08;;;2.30;99.90;;;;;;5075938;28;20114;-78
2021/11/25 06:48:18;;;;;;;35.17;20.05;;;2.20;99.90;;;;;;5075991;28;20161;-78
2021/11/25 06:50:43;;;;;;;30.20;19.02;;;2.30;99.90;;;;;;5094369;28;20157;-77
2021/11/25 06:53:10;;;;;;;30.23;18.83;;;2.40;99.90;;;;;;5094275;28;20073;-77
2021/11/25 06:55:36;;;;;;;34.53;19.48;;;2.50;99.90;;;;;;5075758;28;20047;-78
2021/11/25 06:58:02;;;;;;;31.80;19.20;;;2.70;99.90;;;;;;5075655;28;20024;-78
2021/11/25 07:00:28;;;;;;;32.53;19.45;;;2.50;99.90;;;;;;5093834;28;20551;-78
2021/11/25 07:02:55;;;;;;;35.58;20.13;;;2.60;99.90;;;;;;5075596;28;20081;-77
2021/11/25 07:05:23;;;;;;;36.30;19.13;;;2.60;99.90;;;;;;5093814;28;20024;-78
2021/11/25 07:07:49;;;;;;;37.50;19.55;;;2.70;99.90;;;;;;5075490;28;20020;-78
2021/11/25 07:10:16;;;;;;;36.83;22.15;;;2.70;99.90;;;;;;5075432;28;20024;-78
2021/11/25 07:12:42;;;;;;;38.72;22.38;;;2.70;99.90;;;;;;5075474;28;20493;-78
2021/11/25 07:15:09;;;;;;;35.60;21.17;;;2.60;99.90;;;;;;5075367;28;20020;-78
2021/11/25 07:17:35;;;;;;;36.38;20.20;;;2.50;99.90;;;;;;5093563;28;20028;-77
2021/11/25 07:20:02;;;;;;;42.05;23.20;;;2.50;99.90;;;;;;5092837;28;20054;-78
2021/11/25 07:22:29;;;;;;;31.48;18.38;;;2.40;99.90;;;;;;5075287;28;20051;-78
2021/11/25 07:24:56;;;;;;;36.00;21.05;;;2.40;99.90;;;;;;5075338;28;20042;-78
2021/11/25 07:27:22;;;;;;;38.30;21.27;;;2.30;99.90;;;;;;5075155;28;20073;-78
2021/11/25 07:29:48;;;;;;;34.80;20.42;;;2.40;99.90;;;;;;5075322;28;20428;-78
2021/11/25 07:32:13;;;;;;;38.28;21.17;;;2.40;99.90;;;;;;5075249;28;20051;-78
2021/11/25 07:34:39;;;;;;;36.95;20.23;;;2.40;99.90;;;;;;5093329;28;20522;-78
2021/11/25 07:37:05;;;;;;;30.38;18.63;;;2.40;99.90;;;;;;5074937;28;20048;-78
2021/11/25 07:39:32;;;;;;;29.52;17.27;;;2.40;99.90;;;;;;5075408;28;20055;-78
2021/11/25 07:41:57;;;;;;;37.05;20.02;;;2.50;99.90;;;;;;5075043;28;20387;-78
2021/11/25 07:44:23;;;;;;;38.50;21.45;;;2.70;99.90;;;;;;5075051;28;20020;-78
2021/11/25 07:46:49;;;;;;;37.72;22.25;;;2.50;99.90;;;;;;5075006;28;20020;-78
2021/11/25 07:49:15;;;;;;;35.13;19.63;;;2.60;99.90;;;;;;5074875;28;20034;-78
2021/11/25 07:51:40;;;;;;;35.42;20.80;;;2.60;99.90;;;;;;5074983;28;20020;-78
2021/11/25 07:54:09;;;;;;;36.00;20.75;;;2.60;99.90;;;;;;5074951;28;20024;-78
2021/11/25 07:56:38;;;;;;;37.30;20.48;;;2.60;99.90;;;;;;5074954;28;20138;-78
2021/11/25 07:59:05;;;;;;;37.97;21.92;;;2.50;99.90;;;;;;5074842;28;20129;-78
2021/11/25 08:01:32;;;;;;;36.78;21.80;;;2.40;99.90;;;;;;5093003;28;20487;-78
2021/11/25 08:03:58;;;;;;;36.25;20.48;;;2.50;99.90;;;;;;5092998;28;20076;-78
2021/11/25 08:06:24;;;;;;;38.33;22.40;;;2.50;99.90;;;;;;5092988;28;20023;-78
2021/11/25 08:08:50;;;;;;;47.58;27.63;;;2.50;99.90;;;;;;5074772;28;20498;-78
2021/11/25 08:11:16;;;;;;;32.85;18.77;;;2.30;99.90;;;;;;5074842;28;20024;-77
2021/11/25 08:13:42;;;;;;;38.58;19.38;;;2.40;99.90;;;;;;5092893;28;20387;-78
2021/11/25 08:16:09;;;;;;;36.05;20.13;;;2.50;99.90;;;;;;5092900;28;20031;-78
2021/11/25 08:18:35;;;;;;;34.03;19.30;;;2.60;99.90;;;;;;5074687;28;20459;-77
2021/11/25 08:21:01;;;;;;;33.50;18.75;;;2.70;99.90;;;;;;5074622;28;20031;-78
2021/11/25 08:23:27;;;;;;;35.67;20.77;;;2.60;99.90;;;;;;5074456;28;20020;-78
2021/11/25 08:25:53;;;;;;;26.27;15.93;;;2.50;99.90;;;;;;5092708;28;20457;-78
2021/11/25 08:28:19;;;;;;;34.75;18.92;;;2.60;99.90;;;;;;5074526;28;20028;-79
2021/11/25 08:30:45;;;;;;;33.50;18.38;;;2.80;99.90;;;;;;5075888;28;20032;-79
2021/11/25 08:33:10;;;;;;;32.47;18.10;;;2.90;99.90;;;;;;5078424;28;20081;-79
2021/11/25 08:35:36;;;;;;;39.55;20.85;;;2.90;99.90;;;;;;5078483;28;20028;-78
2021/11/25 08:38:02;;;;;;;31.50;17.63;;;3.00;99.90;;;;;;5078192;28;20054;-79
2021/11/25 08:40:29;;;;;;;33.08;18.55;;;3.10;99.90;;;;;;5078401;28;20115;-78
2021/11/25 08:42:55;;;;;;;37.30;20.80;;;3.10;99.90;;;;;;5096819;28;20556;-78
2021/11/25 08:45:22;;;;;;;37.22;20.95;;;2.80;99.90;;;;;;5096481;28;20387;-78
2021/11/25 08:47:48;;;;;;;34.83;19.10;;;2.70;99.90;;;;;;5078002;28;20107;-78
2021/11/25 08:50:17;;;;;;;35.22;20.65;;;2.60;99.90;;;;;;5078143;28;20028;-78
2021/11/25 08:52:43;;;;;;;36.15;19.23;;;2.70;99.90;;;;;;5078330;28;20130;-78
2021/11/25 08:55:10;;;;;;;32.97;18.08;;;2.80;99.90;;;;;;5078061;28;20078;-78
2021/11/25 08:57:38;;;;;;;33.80;19.27;;;2.90;99.90;;;;;;5077951;28;20079;-78
2021/11/25 09:00:06;;;;;;;31.95;17.48;;;2.90;99.90;;;;;;5077853;28;20032;-78
2021/11/25 09:02:32;;;;;;;34.20;19.77;;;3.00;99.90;;;;;;5077817;28;20035;-78
2021/11/25 09:04:58;;;;;;;36.47;20.50;;;3.00;99.90;;;;;;5077740;28;20047;-78
2021/11/25 09:07:24;;;;;;;37.95;20.08;;;2.80;99.90;;;;;;5077936;28;20020;-78
2021/11/25 09:09:50;;;;;;;30.73;17.92;;;2.60;99.90;;;;;;5077694;28;20020;-78
2021/11/25 09:12:15;;;;;;;28.23;16.35;;;2.60;99.90;;;;;;5095930;28;20024;-78
2021/11/25 09:14:41;;;;;;;32.05;16.98;;;2.70;99.90;;;;;;5096169;28;20055;-78
2021/11/25 09:17:07;;;;;;;31.85;17.80;;;3.00;99.90;;;;;;5095894;28;20493;-78
2021/11/25 09:19:33;;;;;;;33.33;18.42;;;3.20;99.90;;;;;;5095857;28;20150;-78
2021/11/25 09:21:58;;;;;;;31.73;18.10;;;3.10;99.90;;;;;;5077707;28;20048;-78
2021/11/25 09:24:25;;;;;;;32.97;18.65;;;2.90;99.90;;;;;;5077915;28;20387;-78
2021/11/25 09:26:51;;;;;;;37.40;20.92;;;2.90;99.90;;;;;;5077580;28;20093;-78
2021/11/25 09:29:20;;;;;;;34.88;19.50;;;2.80;99.90;;;;;;5077450;28;20062;-78
2021/11/25 09:31:46;;;;;;;34.42;19.08;;;2.90;99.90;;;;;;5077741;28;20043;-78
2021/11/25 09:34:12;;;;;;;35.08;19.73;;;2.90;99.90;;;;;;5077401;28;20391;-79
2021/11/25 09:36:39;;;;;;;30.48;17.13;;;3.10;99.90;;;;;;5095273;28;20036;-78
2021/11/25 09:39:07;;;;;;;35.95;19.80;;;3.20;99.90;;;;;;5095369;28;20055;-78
2021/11/25 09:41:33;;;;;;;33.60;18.67;;;3.40;99.90;;;;;;5095197;28;20024;-79
2021/11/25 09:43:59;;;;;;;33.42;18.52;;;3.40;99.90;;;;;;5076618;28;20035;-78
2021/11/25 09:46:26;;;;;;;42.20;19.88;;;3.50;99.90;;;;;;5095223;28;20028;-78
2021/11/25 09:48:56;;;;;;;36.42;20.10;;;3.40;99.90;;;;;;5076873;28;20024;-79
2021/11/25 09:51:25;;;;;;;39.47;21.60;;;3.40;99.90;;;;;;5095225;28;20016;-79
2021/11/25 09:53:52;;;;;;;34.92;18.30;;;3.30;99.90;;;;;;5095100;28;20016;-79
2021/11/25 09:56:18;;;;;;;45.40;21.33;;;3.20;99.90;;;;;;5077081;28;20119;-79
2021/11/25 09:58:45;;;;;;;33.70;19.25;;;3.20;99.90;;;;;;5095136;28;20024;-79
2021/11/25 10:01:15;;;;;;;54.10;24.52;;;3.10;99.90;;;;;;5076943;28;20020;-79
2021/11/25 10:03:48;;;;;;;47.47;24.15;;;3.00;99.90;;;;;;5076846;28;20020;-79
2021/11/25 10:06:14;;;;;;;39.28;20.67;;;3.10;99.90;;;;;;5095302;28;20031;-79
2021/11/25 10:08:47;;;;;;;37.50;20.52;;;2.90;99.90;;;;;;5076641;28;20024;-79
2021/11/25 10:11:20;;;;;;;43.57;23.57;;;2.90;99.90;;;;;;5076815;28;20438;-79
2021/11/25 10:13:56;;;;;;;38.50;21.25;;;3.00;99.90;;;;;;5076689;28;20511;-79
2021/11/25 10:16:38;;;;;;;35.13;19.73;;;2.90;99.90;;;;;;5095090;28;20019;-79
2021/11/25 10:19:11;;;;;;;36.55;20.33;;;2.80;99.90;;;;;;5076611;28;20073;-79
2021/11/25 10:21:53;;;;;;;35.58;19.52;;;3.00;99.90;;;;;;5076493;28;20437;-79
2021/11/25 10:24:40;;;;;;;42.35;22.23;;;2.90;99.90;;;;;;5076485;28;20028;-79
2021/11/25 10:27:46;;;;;;;37.15;19.70;;;2.80;99.90;;;;;;5076251;28;20499;-78
2021/11/25 10:30:17;;;;;;;38.47;20.77;;;2.90;99.90;;;;;;5086120;28;20115;-79
2021/11/25 10:33:00;;;;;;;40.75;20.73;;;2.90;99.90;;;;;;5076623;28;20547;-79
2021/11/25 10:35:35;;;;;;;41.33;22.08;;;2.90;99.90;;;;;;5076284;28;20416;-79
2021/11/25 10:40:35;;;;;;;37.67;19.80;;;2.70;99.90;;;;;;5094411;28;20024;-78
2021/11/25 10:43:23;;;;;;;36.90;19.83;;;2.70;99.90;;;;;;5076112;28;20031;-79
2021/11/25 10:45:53;;;;;;;40.35;20.88;;;2.80;99.90;;;;;;5076156;28;20020;-78
2021/11/25 10:48:35;;;;;;;42.70;22.10;;;2.80;99.90;;;;;;5075828;28;20109;-79
2021/11/25 10:51:20;;;;;;;36.53;20.17;;;2.90;99.90;;;;;;5075955;28;20495;-78
2021/11/25 10:54:17;;;;;;;41.85;21.63;;;2.80;99.90;;;;;;5074965;28;20024;-78
2021/11/25 10:56:55;;;;;;;37.17;19.45;;;2.70;99.90;;;;;;5094404;28;20027;-78
2021/11/25 10:59:41;;;;;;;35.67;20.05;;;2.80;99.90;;;;;;5094276;28;20108;-79
2021/11/25 11:02:33;;;;;;;37.17;20.25;;;2.70;99.90;;;;;;5075745;28;20110;-79
2021/11/25 11:05:07;;;;;;;33.28;18.50;;;2.80;99.90;;;;;;5072820;28;20127;-79
2021/11/25 11:07:36;;;;;;;30.55;17.27;;;3.00;99.90;;;;;;5094372;28;20126;-78
2021/11/25 11:10:24;;;;;;;30.92;17.90;;;3.20;99.90;;;;;;5075521;28;20031;-78
2021/11/25 11:16:28;;;;;;;40.10;22.05;;;3.20;99.90;;;;;;5093989;28;20031;-78
2021/11/25 11:21:08;;;;;;;31.92;17.48;;;3.10;99.90;;;;;;5093916;28;20028;-79
2021/11/25 11:23:34;;;;;;;30.55;17.48;;;3.10;99.90;;;;;;5075304;28;20028;-78
2021/11/25 11:26:00;;;;;;;36.33;18.27;;;3.20;99.90;;;;;;5075323;28;20084;-78
2021/11/25 11:28:27;;;;;;;41.58;21.98;;;3.20;99.90;;;;;;5076059;28;20049;-78
2021/11/25 11:30:53;;;;;;;38.83;20.35;;;3.10;99.90;;;;;;5075283;28;20027;-79
2021/11/25 11:33:19;;;;;;;36.50;20.77;;;3.10;99.90;;;;;;5093362;28;20149;-79
2021/11/25 11:35:46;;;;;;;36.95;20.90;;;3.00;99.90;;;;;;5093182;28;20511;-79
2021/11/25 11:38:13;;;;;;;38.40;19.33;;;3.00;99.90;;;;;;5093348;28;20031;-78
2021/11/25 11:40:42;;;;;;;29.80;17.77;;;3.20;99.90;;;;;;5093229;28;20048;-78
2021/11/25 11:43:10;;;;;;;34.15;18.88;;;3.40;99.90;;;;;;5074965;28;20024;-78
2021/11/25 11:45:38;;;;;;;30.65;18.27;;;3.50;99.90;;;;;;5075057;28;20020;-78
2021/11/25 11:48:07;;;;;;;32.85;16.75;;;3.80;99.90;;;;;;5074896;28;20024;-78
2021/11/25 11:50:39;;;;;;;35.33;19.27;;;3.90;99.90;;;;;;5075036;28;20031;-78
2021/11/25 11:53:08;;;;;;;33.65;19.23;;;3.80;99.90;;;;;;5075030;28;20060;-78
2021/11/25 11:55:47;;;;;;;33.13;17.75;;;3.50;99.90;;;;;;5093102;28;20471;-78
2021/11/25 11:58:23;;;;;;;32.90;18.25;;;3.40;99.90;;;;;;5075101;28;20081;-78
2021/11/25 12:00:51;;;;;;;34.28;17.75;;;3.40;99.90;;;;;;5074898;28;20056;-78
2021/11/25 12:03:39;;;;;;;33.92;20.13;;;3.40;99.90;;;;;;5074837;28;20032;-78
2021/11/25 12:06:06;;;;;;;36.17;20.45;;;3.30;99.90;;;;;;5076778;28;20028;-79
2021/11/25 12:08:35;;;;;;;33.50;18.80;;;3.40;99.90;;;;;;5078855;28;20020;-78
2021/11/25 12:11:04;;;;;;;31.73;18.40;;;3.50;99.90;;;;;;5079457;28;20115;-78
2021/11/25 12:13:55;;;;;;;33.58;19.27;;;3.60;99.90;;;;;;5097103;28;20019;-78
2021/11/25 12:16:21;;;;;;;31.60;18.25;;;3.70;99.90;;;;;;5088174;28;20040;-78
2021/11/25 12:18:53;;;;;;;32.22;17.80;;;3.80;99.90;;;;;;5078869;28;20085;-78
2021/11/25 12:21:42;;;;;;;40.47;21.92;;;3.70;99.90;;;;;;5078844;28;20024;-78
2021/11/25 12:24:15;;;;;;;33.50;19.42;;;3.70;99.90;;;;;;5078839;28;20490;-78
2021/11/25 12:27:04;;;;;;;36.60;20.73;;;3.50;99.90;;;;;;5097202;28;20438;-78
2021/11/25 12:29:44;;;;;;;33.80;19.90;;;3.60;99.90;;;;;;5096791;28;20020;-78
2021/11/25 12:35:12;;;;;;;38.35;20.13;;;3.50;99.90;;;;;;5096674;28;20024;-78
2021/11/25 12:37:47;;;;;;;33.97;18.30;;;3.40;99.90;;;;;;5078307;28;20044;-78
2021/11/25 12:40:21;;;;;;;33.30;20.33;;;3.50;99.90;;;;;;5078262;28;20099;-78
2021/11/25 12:42:53;;;;;;;37.08;21.42;;;3.50;99.90;;;;;;5096460;28;20077;-78
2021/11/25 12:45:23;;;;;;;31.98;19.30;;;3.50;99.90;;;;;;5078283;28;20118;-78
2021/11/25 12:48:11;;;;;;;32.35;19.23;;;3.60;99.90;;;;;;5078094;28;20024;-79
2021/11/25 12:50:43;;;;;;;35.65;21.00;;;3.70;99.90;;;;;;5078112;28;20020;-78
2021/11/25 12:53:15;;;;;;;30.90;18.23;;;3.80;99.90;;;;;;5078789;28;20460;-78
2021/11/25 12:55:43;;;;;;;33.38;19.65;;;3.80;99.90;;;;;;5078098;28;20024;-79
2021/11/25 12:58:09;;;;;;;29.75;18.13;;;3.90;99.90;;;;;;5096248;28;20016;-79